createdAt,value
2022-11-23T00:01:26.487Z,20.80
2022-11-23T00:03:57.181Z,21.00
2022-11-23T00:06:25.608Z,21.42
2022-11-23T00:08:53.674Z,20.77
2022-11-23T00:11:22.117Z,19.35
2022-11-23T00:13:49.842Z,20.20
2022-11-23T00:16:20.058Z,20.52
2022-11-23T00:18:47.953Z,20.70
2022-11-23T00:21:16.587Z,19.73
2022-11-23T00:23:45.020Z,19.42
2022-11-23T00:26:13.361Z,19.63
2022-11-23T00:28:42.132Z,17.88
2022-11-23T00:31:11.406Z,19.52
2022-11-23T00:33:39.244Z,18.17
2022-11-23T00:36:10.425Z,20.65
2022-11-23T00:41:08.259Z,20.10
2022-11-23T00:43:36.525Z,19.88
2022-11-23T00:46:12.540Z,19.90
2022-11-23T00:48:41.163Z,20.52
2022-11-23T00:51:10.229Z,19.50
2022-11-23T00:53:38.113Z,18.13
2022-11-23T00:56:06.533Z,20.30
2022-11-23T00:58:34.775Z,18.77
2022-11-23T01:01:06.909Z,19.52
2022-11-23T01:03:37.205Z,20.15
2022-11-23T01:06:10.132Z,17.70
2022-11-23T01:08:37.939Z,20.75
2022-11-23T01:11:07.680Z,18.85
2022-11-23T01:13:38.163Z,17.25
2022-11-23T01:16:07.650Z,17.60
2022-11-23T01:18:36.728Z,17.40
2022-11-23T01:21:03.611Z,20.50
2022-11-23T01:23:31.556Z,17.70
2022-11-23T01:26:04.575Z,18.35
2022-11-23T01:28:31.738Z,18.45
2022-11-23T01:31:15.739Z,19.63
2022-11-23T01:33:45.393Z,17.70
2022-11-23T01:36:18.269Z,16.77
2022-11-23T01:38:47.137Z,18.17
2022-11-23T01:41:35.880Z,17.85
2022-11-23T01:44:24.830Z,14.98
2022-11-23T01:46:57.666Z,17.85
2022-11-23T01:49:27.330Z,19.63
2022-11-23T01:51:59.530Z,21.27
2022-11-23T01:54:36.464Z,17.40
2022-11-23T01:57:13.748Z,14.93
2022-11-23T01:59:40.970Z,16.98
2022-11-23T02:02:07.808Z,16.95
2022-11-23T02:04:39.932Z,16.08
2022-11-23T02:07:07.194Z,14.63
2022-11-23T02:09:35.774Z,14.73
2022-11-23T02:12:02.618Z,16.75
2022-11-23T02:14:30.039Z,14.98
2022-11-23T02:16:59.940Z,16.42
2022-11-23T02:19:48.893Z,14.40
2022-11-23T02:22:25.360Z,14.77
2022-11-23T02:24:55.213Z,15.00
2022-11-23T02:27:26.293Z,17.15
2022-11-23T02:29:55.296Z,13.82
2022-11-23T02:32:24.840Z,14.57
2022-11-23T02:34:56.362Z,18.73
2022-11-23T02:37:23.620Z,15.32
2022-11-23T02:39:54.294Z,15.98
2022-11-23T02:42:21.292Z,17.92
2022-11-23T02:45:03.624Z,13.20
2022-11-23T02:47:30.994Z,12.52
2022-11-23T02:49:58.332Z,17.95
2022-11-23T02:52:25.197Z,16.65
2022-11-23T02:54:52.435Z,18.52
2022-11-23T02:57:19.257Z,16.67
2022-11-23T02:59:47.062Z,16.70
2022-11-23T03:02:13.975Z,17.92
2022-11-23T03:04:41.190Z,16.92
2022-11-23T03:07:08.120Z,18.52
2022-11-23T03:09:35.932Z,18.25
2022-11-23T03:12:03.060Z,15.15
2022-11-23T03:14:30.242Z,17.98
2022-11-23T03:17:01.159Z,17.20
2022-11-23T03:19:33.228Z,17.55
2022-11-23T03:22:00.732Z,17.35
2022-11-23T03:24:31.593Z,17.65
2022-11-23T03:27:17.885Z,18.45
2022-11-23T03:29:46.161Z,16.08
2022-11-23T03:32:18.179Z,19.60
2022-11-23T03:34:48.851Z,15.68
2022-11-23T03:37:17.559Z,17.90
2022-11-23T03:39:47.549Z,14.85
2022-11-23T03:42:33.294Z,17.58
2022-11-23T03:45:00.588Z,18.00
2022-11-23T03:47:27.380Z,17.00
2022-11-23T03:49:54.462Z,14.52
2022-11-23T03:52:21.283Z,14.95
2022-11-23T03:54:48.767Z,14.55
2022-11-23T03:57:15.986Z,15.18
2022-11-23T03:59:43.141Z,16.50
2022-11-23T04:02:10.606Z,15.02
2022-11-23T04:04:45.780Z,16.80
2022-11-23T04:07:32.643Z,15.60
2022-11-23T04:10:04.188Z,16.92
2022-11-23T04:13:09.232Z,15.68
2022-11-23T04:15:36.583Z,15.82
2022-11-23T04:18:03.776Z,16.60
2022-11-23T04:20:31.415Z,13.88
2022-11-23T04:22:58.246Z,15.90
2022-11-23T04:25:27.124Z,15.25
2022-11-23T04:27:55.175Z,15.52
2022-11-23T04:30:23.532Z,13.65
2022-11-23T04:32:53.241Z,13.98
2022-11-23T04:35:22.491Z,13.15
2022-11-23T04:37:50.859Z,14.48
2022-11-23T04:40:18.729Z,14.48
2022-11-23T04:42:57.593Z,14.15
2022-11-23T04:45:27.994Z,14.57
2022-11-23T04:47:57.898Z,13.38
2022-11-23T04:50:26.385Z,12.30
2022-11-23T04:52:55.747Z,14.65
2022-11-23T04:55:29.335Z,13.32
2022-11-23T04:57:58.260Z,14.00
2022-11-23T05:00:28.974Z,14.63
2022-11-23T05:03:01.023Z,12.70
2022-11-23T05:05:32.425Z,13.00
2022-11-23T05:08:00.297Z,12.80
2022-11-23T05:10:39.908Z,12.68
2022-11-23T05:13:06.994Z,14.18
2022-11-23T05:15:34.326Z,11.90
2022-11-23T05:18:03.882Z,12.07
2022-11-23T05:20:31.009Z,13.23
2022-11-23T05:22:58.402Z,11.80
2022-11-23T05:25:27.198Z,10.98
2022-11-23T05:28:11.412Z,11.95
2022-11-23T05:30:49.137Z,11.70
2022-11-23T05:33:16.428Z,10.48
2022-11-23T05:35:44.420Z,8.40
2022-11-23T05:38:11.515Z,9.63
2022-11-23T05:40:39.454Z,12.23
2022-11-23T05:43:24.858Z,12.02
2022-11-23T05:45:52.448Z,11.43
2022-11-23T05:48:20.999Z,11.50
2022-11-23T05:51:02.303Z,12.18
2022-11-23T05:53:35.356Z,12.30
2022-11-23T05:56:16.302Z,12.50
2022-11-23T05:58:58.319Z,10.50
2022-11-23T06:01:26.459Z,12.32
2022-11-23T06:03:57.705Z,11.63
2022-11-23T06:06:25.497Z,10.95
2022-11-23T06:08:52.365Z,11.15
2022-11-23T06:11:20.138Z,12.80
2022-11-23T06:13:48.170Z,11.63
2022-11-23T06:16:16.608Z,11.88
2022-11-23T06:18:56.795Z,12.48
2022-11-23T06:21:24.010Z,12.70
2022-11-23T06:23:51.079Z,13.05
2022-11-23T06:26:18.434Z,11.80
2022-11-23T06:28:45.793Z,12.38
2022-11-23T06:31:14.678Z,12.95
2022-11-23T06:33:41.733Z,12.13
2022-11-23T06:36:10.614Z,9.63
2022-11-23T06:38:43.531Z,12.98
2022-11-23T06:43:42.170Z,11.50
2022-11-23T06:46:11.450Z,12.23
2022-11-23T06:48:43.884Z,14.13
2022-11-23T06:51:12.416Z,14.20
2022-11-23T06:53:39.714Z,14.90
2022-11-23T06:56:09.012Z,13.05
2022-11-23T06:58:36.264Z,12.57
2022-11-23T07:01:08.920Z,13.98
2022-11-23T07:03:49.347Z,10.60
2022-11-23T07:06:29.259Z,13.30
2022-11-23T07:08:59.780Z,7.47
2022-11-23T07:11:43.121Z,12.85
2022-11-23T07:14:12.118Z,12.38
2022-11-23T07:16:43.046Z,12.30
2022-11-23T07:19:11.534Z,13.77
2022-11-23T07:21:40.090Z,12.80
2022-11-23T07:24:07.135Z,12.52
2022-11-23T07:26:35.130Z,12.90
2022-11-23T07:29:04.038Z,11.88
2022-11-23T07:31:31.603Z,11.82
2022-11-23T07:33:58.631Z,10.27
2022-11-23T07:36:26.800Z,11.27
2022-11-23T07:38:53.689Z,11.07
2022-11-23T07:41:21.658Z,10.73
2022-11-23T07:44:09.687Z,12.80
2022-11-23T07:46:37.449Z,12.52
2022-11-23T07:49:04.365Z,12.02
2022-11-23T07:51:31.778Z,12.75
2022-11-23T07:53:58.589Z,11.73
2022-11-23T07:56:25.811Z,13.43
2022-11-23T07:58:52.943Z,11.45
2022-11-23T08:01:20.406Z,12.25
2022-11-23T08:03:48.519Z,10.90
2022-11-23T08:06:16.657Z,11.70
2022-11-23T08:08:44.236Z,13.95
2022-11-23T08:11:14.827Z,14.32
2022-11-23T08:13:41.786Z,16.17
2022-11-23T08:16:09.158Z,15.07
2022-11-23T08:18:36.298Z,16.08
2022-11-23T08:21:04.601Z,15.63
2022-11-23T08:23:31.540Z,15.48
2022-11-23T08:25:59.179Z,14.52
2022-11-23T08:28:26.596Z,12.75
2022-11-23T08:30:53.917Z,13.85
2022-11-23T08:33:20.838Z,12.90
2022-11-23T08:35:48.123Z,16.73
2022-11-23T08:38:15.611Z,16.75
2022-11-23T08:40:42.986Z,14.30
2022-11-23T08:43:10.283Z,12.13
2022-11-23T08:45:37.703Z,14.00
2022-11-23T08:48:05.373Z,13.20
2022-11-23T08:50:34.608Z,13.48
2022-11-23T08:53:01.745Z,11.32
2022-11-23T08:55:29.751Z,11.52
2022-11-23T08:57:58.417Z,12.43
2022-11-23T09:00:27.122Z,11.43
2022-11-23T09:02:54.494Z,9.85
2022-11-23T09:05:22.003Z,11.88
2022-11-23T09:07:49.086Z,11.45
2022-11-23T09:10:19.112Z,11.85
2022-11-23T09:12:47.348Z,17.38
2022-11-23T09:15:14.991Z,13.32
2022-11-23T09:17:42.171Z,13.20
2022-11-23T09:20:10.503Z,13.27
2022-11-23T09:22:37.585Z,11.85
2022-11-23T09:25:05.624Z,9.98
2022-11-23T09:27:33.015Z,12.00
2022-11-23T09:30:00.265Z,12.43
2022-11-23T09:32:27.824Z,10.70
2022-11-23T09:34:55.266Z,8.77
2022-11-23T09:37:22.232Z,10.93
2022-11-23T09:39:49.417Z,10.10
2022-11-23T09:42:58.175Z,12.93
2022-11-23T09:45:44.738Z,11.93
2022-11-23T09:48:37.684Z,11.63
2022-11-23T09:51:25.377Z,12.70
2022-11-23T09:53:59.940Z,13.80
2022-11-23T09:56:33.777Z,13.00
2022-11-23T09:59:10.578Z,14.02
2022-11-23T10:01:38.451Z,12.93
2022-11-23T10:04:07.234Z,13.35
2022-11-23T10:06:39.221Z,10.90
2022-11-23T10:09:19.160Z,11.20
2022-11-23T10:12:23.151Z,11.07
2022-11-23T10:14:59.609Z,11.70
2022-11-23T10:17:36.057Z,12.32
2022-11-23T10:20:28.047Z,10.00
2022-11-23T10:22:55.234Z,8.82
2022-11-23T10:25:24.419Z,12.05
2022-11-23T10:27:58.491Z,11.40
2022-11-23T10:30:25.859Z,11.02
2022-11-23T10:33:10.285Z,10.30
2022-11-23T10:35:38.402Z,11.50
2022-11-23T10:38:18.739Z,10.63
2022-11-23T10:41:01.993Z,11.23
2022-11-23T10:43:38.368Z,12.80
2022-11-23T10:46:34.924Z,11.93
2022-11-23T10:49:22.358Z,11.07
2022-11-23T10:51:57.738Z,12.95
2022-11-23T10:54:31.213Z,12.25
2022-11-23T10:57:00.851Z,12.18
2022-11-23T10:59:38.963Z,12.35
2022-11-23T11:02:21.694Z,13.95
2022-11-23T11:04:55.851Z,12.50
2022-11-23T11:07:30.632Z,13.45
2022-11-23T11:10:00.128Z,12.55
2022-11-23T11:12:29.514Z,11.85
2022-11-23T11:15:12.439Z,11.18
2022-11-23T11:17:59.343Z,13.80
2022-11-23T11:20:31.568Z,8.75
2022-11-23T11:23:05.269Z,10.10
2022-11-23T11:25:37.567Z,14.50
2022-11-23T11:28:18.455Z,12.25
2022-11-23T11:31:24.181Z,15.35
2022-11-23T11:34:25.138Z,13.10
2022-11-23T11:37:11.237Z,14.38
2022-11-23T11:40:19.590Z,15.35
2022-11-23T11:42:53.265Z,12.02
2022-11-23T11:45:28.707Z,14.80
2022-11-23T11:48:04.368Z,13.32
2022-11-23T11:50:38.380Z,12.75
2022-11-23T11:53:13.588Z,13.75
2022-11-23T11:56:11.888Z,14.63
2022-11-23T11:58:44.926Z,14.15
2022-11-23T12:01:26.193Z,14.05
2022-11-23T12:04:05.748Z,12.50
2022-11-23T12:06:54.600Z,15.23
2022-11-23T12:09:28.401Z,15.02
2022-11-23T12:11:55.786Z,13.85
2022-11-23T12:14:23.074Z,14.63
2022-11-23T12:20:16.444Z,14.23
2022-11-23T12:22:59.600Z,14.98
2022-11-23T12:25:37.387Z,12.88
2022-11-23T12:28:41.528Z,13.35
2022-11-23T12:31:18.406Z,14.00
2022-11-23T12:33:56.787Z,16.27
2022-11-23T12:36:57.348Z,14.68
2022-11-23T12:39:57.902Z,16.02
2022-11-23T12:42:38.985Z,16.30
2022-11-23T12:45:41.331Z,16.65
2022-11-23T12:48:11.646Z,36.45
2022-11-23T12:50:47.504Z,16.42
2022-11-23T12:53:39.529Z,17.20
2022-11-23T12:56:37.395Z,13.65
2022-11-23T12:59:08.472Z,16.42
2022-11-23T13:01:39.669Z,20.02
2022-11-23T13:04:10.160Z,16.50
2022-11-23T13:09:52.358Z,16.35
2022-11-23T13:12:40.167Z,16.05
2022-11-23T13:15:34.741Z,16.63
2022-11-23T13:18:11.423Z,16.42
2022-11-23T13:20:51.586Z,15.60
2022-11-23T13:23:21.729Z,19.17
2022-11-23T13:26:16.646Z,17.40
2022-11-23T13:28:45.101Z,15.35
2022-11-23T13:31:16.347Z,16.30
2022-11-23T13:33:45.752Z,14.20
2022-11-23T13:37:04.302Z,16.25
2022-11-23T13:40:01.008Z,15.77
2022-11-23T13:42:32.862Z,18.00
2022-11-23T13:45:21.692Z,16.38
2022-11-23T13:48:05.720Z,18.23
2022-11-23T13:50:33.566Z,17.10
2022-11-23T13:53:02.288Z,19.58
2022-11-23T13:55:38.255Z,17.63
2022-11-23T13:58:23.918Z,18.70
2022-11-23T14:00:59.163Z,18.55
2022-11-23T14:03:47.946Z,18.30
2022-11-23T14:06:24.128Z,17.83
2022-11-23T14:09:05.800Z,18.88
2022-11-23T14:11:42.218Z,17.17
2022-11-23T14:14:18.932Z,18.10
2022-11-23T14:17:17.795Z,20.20
2022-11-23T14:20:14.293Z,18.55
2022-11-23T14:22:56.647Z,17.35
2022-11-23T14:25:49.335Z,18.33
2022-11-23T14:28:22.631Z,18.98
2022-11-23T14:31:03.608Z,18.52
2022-11-23T14:34:12.883Z,15.25
2022-11-23T14:36:57.000Z,16.60
2022-11-23T14:39:42.455Z,17.67
2022-11-23T14:42:17.112Z,19.58
2022-11-23T14:44:45.028Z,17.63
2022-11-23T14:47:12.470Z,20.30
2022-11-23T14:49:50.952Z,20.25
2022-11-23T14:52:38.316Z,19.80
2022-11-23T14:55:06.609Z,19.60
2022-11-23T14:57:43.110Z,19.65
2022-11-23T15:00:35.558Z,18.90
2022-11-23T15:03:48.846Z,23.27
2022-11-23T15:06:13.508Z,21.85
2022-11-23T15:08:57.255Z,21.05
2022-11-23T15:11:29.075Z,20.58
2022-11-23T15:14:02.172Z,21.30
2022-11-23T15:16:30.606Z,21.33
2022-11-23T15:18:58.118Z,19.77
2022-11-23T15:21:28.252Z,23.15
2022-11-23T15:23:58.502Z,17.60
2022-11-23T15:29:36.156Z,22.38
2022-11-23T15:32:29.381Z,19.17
2022-11-23T15:34:55.057Z,20.95
2022-11-23T15:37:24.425Z,21.80
2022-11-23T15:39:53.852Z,23.55
2022-11-23T15:42:24.511Z,22.35
2022-11-23T15:44:54.741Z,22.42
2022-11-23T15:47:27.834Z,22.40
2022-11-23T15:50:02.100Z,24.05
2022-11-23T15:52:37.305Z,22.77
2022-11-23T15:55:12.820Z,23.17
2022-11-23T15:57:41.775Z,22.83
2022-11-23T16:00:21.222Z,24.23
2022-11-23T16:02:48.441Z,23.77
2022-11-23T16:05:19.882Z,14.85
2022-11-23T16:07:52.784Z,22.50
2022-11-23T16:10:30.752Z,20.60
2022-11-23T16:13:03.004Z,16.92
2022-11-23T16:15:38.605Z,21.48
2022-11-23T16:18:25.185Z,21.40
2022-11-23T16:20:56.895Z,23.02
2022-11-23T16:23:27.551Z,21.73
2022-11-23T16:26:01.665Z,21.67
2022-11-23T16:28:33.980Z,23.88
2022-11-23T16:31:01.909Z,22.00
2022-11-23T16:33:30.521Z,20.83
2022-11-23T16:35:57.998Z,18.85
2022-11-23T16:38:25.885Z,20.15
2022-11-23T16:40:53.164Z,21.23
2022-11-23T16:43:20.249Z,19.27
2022-11-23T16:45:51.297Z,21.15
2022-11-23T16:48:24.521Z,21.95
2022-11-23T16:50:56.115Z,21.50
2022-11-23T16:53:23.958Z,22.35
2022-11-23T16:55:55.726Z,20.10
2022-11-23T17:00:50.216Z,20.08
2022-11-23T17:03:18.821Z,20.10
2022-11-23T17:05:47.840Z,21.02
2022-11-23T17:08:21.539Z,20.23
2022-11-23T17:10:51.418Z,20.45
2022-11-23T17:13:29.008Z,20.35
2022-11-23T17:15:56.579Z,19.75
2022-11-23T17:18:23.465Z,20.48
2022-11-23T17:20:50.938Z,20.60
2022-11-23T17:23:18.353Z,18.30
2022-11-23T17:25:45.684Z,21.90
2022-11-23T17:28:21.297Z,21.25
2022-11-23T17:30:49.013Z,21.58
2022-11-23T17:33:16.102Z,20.88
2022-11-23T17:35:43.523Z,21.20
2022-11-23T17:38:19.355Z,21.40
2022-11-23T17:40:46.703Z,22.90
2022-11-23T17:43:14.544Z,20.45
2022-11-23T17:45:43.840Z,21.65
2022-11-23T17:48:12.778Z,21.65
2022-11-23T17:50:40.076Z,20.75
2022-11-23T17:53:06.915Z,20.13
2022-11-23T17:55:34.145Z,20.67
2022-11-23T17:58:01.040Z,21.05
2022-11-23T18:00:29.781Z,20.58
2022-11-23T18:02:56.968Z,22.02
2022-11-23T18:05:24.486Z,21.52
2022-11-23T18:07:52.008Z,20.88
2022-11-23T18:10:19.427Z,18.35
2022-11-23T18:12:47.581Z,19.10
2022-11-23T18:15:15.403Z,17.63
2022-11-23T18:17:42.530Z,18.17
2022-11-23T18:20:10.394Z,17.70
2022-11-23T18:22:37.743Z,19.17
2022-11-23T18:25:05.244Z,17.70
2022-11-23T18:27:32.316Z,18.70
2022-11-23T18:29:59.595Z,19.73
2022-11-23T18:32:26.484Z,18.63
2022-11-23T18:34:53.695Z,18.23
2022-11-23T18:37:20.648Z,18.17
2022-11-23T18:39:47.833Z,18.42
2022-11-23T18:42:14.681Z,18.70
2022-11-23T18:44:41.787Z,18.17
2022-11-23T18:47:08.718Z,17.52
2022-11-23T18:49:36.213Z,17.13
2022-11-23T18:52:03.281Z,18.08
2022-11-23T18:54:30.595Z,17.58
2022-11-23T18:56:57.574Z,17.92
2022-11-23T19:02:13.244Z,20.33
2022-11-23T19:04:40.537Z,18.65
2022-11-23T19:07:07.663Z,17.65
2022-11-23T19:09:35.680Z,17.08
2022-11-23T19:12:02.920Z,17.23
2022-11-23T19:14:30.178Z,17.00
2022-11-23T19:16:57.849Z,18.95
2022-11-23T19:19:26.007Z,20.27
2022-11-23T19:21:53.096Z,20.10
2022-11-23T19:24:20.386Z,22.23
2022-11-23T19:26:47.483Z,20.83
2022-11-23T19:29:14.709Z,18.25
2022-11-23T19:31:41.771Z,19.65
2022-11-23T19:34:10.878Z,18.63
2022-11-23T19:36:37.831Z,20.92
2022-11-23T19:39:06.168Z,20.25
2022-11-23T19:41:33.213Z,19.88
2022-11-23T19:44:01.597Z,18.20
2022-11-23T19:46:30.662Z,21.23
2022-11-23T19:48:59.193Z,20.65
2022-11-23T19:51:27.162Z,19.58
2022-11-23T19:53:57.136Z,21.85
2022-11-23T19:56:26.087Z,22.15
2022-11-23T19:58:56.048Z,20.52
2022-11-23T20:01:24.457Z,19.67
2022-11-23T20:03:54.982Z,21.48
2022-11-23T20:06:27.158Z,20.35
2022-11-23T20:09:00.135Z,19.10
2022-11-23T20:11:30.368Z,19.67
2022-11-23T20:13:58.179Z,18.23
2022-11-23T20:16:27.487Z,19.27
2022-11-23T20:18:57.238Z,18.95
2022-11-23T20:21:24.773Z,19.17
2022-11-23T20:24:13.105Z,19.88
2022-11-23T20:26:41.900Z,18.00
2022-11-23T20:29:09.991Z,18.52
2022-11-23T20:31:37.595Z,18.48
2022-11-23T20:34:07.804Z,19.27
2022-11-23T20:36:38.171Z,19.25
2022-11-23T20:39:09.598Z,15.77
2022-11-23T20:41:37.653Z,20.25
2022-11-23T20:44:10.454Z,18.75
2022-11-23T20:49:24.737Z,19.52
2022-11-23T20:51:52.170Z,17.52
2022-11-23T20:54:19.620Z,18.48
2022-11-23T20:56:46.588Z,17.75
2022-11-23T20:59:13.831Z,17.92
2022-11-23T21:01:41.008Z,19.15
2022-11-23T21:04:08.980Z,18.98
2022-11-23T21:06:39.427Z,19.48
2022-11-23T21:09:11.310Z,19.27
2022-11-23T21:11:57.405Z,19.10
2022-11-23T21:14:30.373Z,18.30
2022-11-23T21:16:59.601Z,18.45
2022-11-23T21:19:37.784Z,17.60
2022-11-23T21:22:13.377Z,17.15
2022-11-23T21:24:41.085Z,20.58
2022-11-23T21:27:12.144Z,19.10
2022-11-23T21:29:39.688Z,18.35
2022-11-23T21:32:06.597Z,19.20
2022-11-23T21:34:34.286Z,18.92
2022-11-23T21:37:01.870Z,19.88
2022-11-23T21:39:30.988Z,18.73
2022-11-23T21:41:58.051Z,18.50
2022-11-23T21:44:25.168Z,18.80
2022-11-23T21:46:52.322Z,18.65
2022-11-23T21:49:19.610Z,17.42
2022-11-23T21:51:46.755Z,17.88
2022-11-23T21:54:15.996Z,17.08
2022-11-23T21:56:45.075Z,17.98
2022-11-23T21:59:12.889Z,16.42
2022-11-23T22:01:40.757Z,18.92
2022-11-23T22:04:11.500Z,16.50
2022-11-23T22:06:40.189Z,17.83
2022-11-23T22:09:09.681Z,16.92
2022-11-23T22:11:39.598Z,17.85
2022-11-23T22:14:09.759Z,18.92
2022-11-23T22:16:39.319Z,15.68
2022-11-23T22:19:07.093Z,16.30
2022-11-23T22:21:36.701Z,18.75
2022-11-23T22:24:05.484Z,15.50
2022-11-23T22:26:32.955Z,16.75
2022-11-23T22:29:02.626Z,16.92
2022-11-23T22:31:33.142Z,16.00
2022-11-23T22:34:02.225Z,18.48
2022-11-23T22:36:30.083Z,16.48
2022-11-23T22:39:01.885Z,16.67
2022-11-23T22:41:30.773Z,17.75
2022-11-23T22:43:58.006Z,16.95
2022-11-23T22:46:25.764Z,16.23
2022-11-23T22:48:54.090Z,17.58
2022-11-23T22:51:23.639Z,16.67
2022-11-23T22:53:56.098Z,15.98
2022-11-23T22:56:23.093Z,15.55
2022-11-23T22:58:50.473Z,16.80
2022-11-23T23:01:19.622Z,14.45
2022-11-23T23:03:47.714Z,16.70
2022-11-23T23:06:20.233Z,15.23
2022-11-23T23:08:52.221Z,15.30
2022-11-23T23:13:46.900Z,13.85
2022-11-23T23:16:14.530Z,14.90
2022-11-23T23:18:42.751Z,15.52
2022-11-23T23:21:15.155Z,12.35
2022-11-23T23:23:44.741Z,15.18
2022-11-23T23:26:13.702Z,12.77
2022-11-23T23:28:41.058Z,12.43
2022-11-23T23:31:10.985Z,12.60
2022-11-23T23:33:38.739Z,12.98
2022-11-23T23:36:11.745Z,15.02
2022-11-23T23:38:40.663Z,13.45
2022-11-23T23:41:09.066Z,13.18
2022-11-23T23:43:36.938Z,13.05
2022-11-23T23:46:09.431Z,13.20
2022-11-23T23:48:38.613Z,12.93
2022-11-23T23:51:16.332Z,14.02
2022-11-23T23:53:45.250Z,14.18
2022-11-23T23:56:15.118Z,16.35
2022-11-23T23:58:42.937Z,14.27
